createdAt,value
2022-09-15T00:01:21.381Z,100.00
2022-09-15T00:04:09.734Z,100.00
2022-09-15T00:06:57.475Z,100.00
2022-09-15T00:09:45.207Z,100.00
2022-09-15T00:12:33.481Z,100.00
2022-09-15T00:15:22.049Z,100.00
2022-09-15T00:18:09.842Z,100.00
2022-09-15T00:20:57.999Z,100.00
2022-09-15T00:23:47.042Z,100.00
2022-09-15T00:26:35.876Z,100.00
2022-09-15T00:29:23.659Z,100.00
2022-09-15T00:32:11.492Z,100.00
2022-09-15T00:34:59.224Z,100.00
2022-09-15T00:37:46.950Z,100.00
2022-09-15T00:40:55.488Z,100.00
2022-09-15T00:43:57.501Z,100.00
2022-09-15T00:47:04.299Z,100.00
2022-09-15T00:50:10.422Z,100.00
2022-09-15T00:53:01.828Z,100.00
2022-09-15T00:55:51.098Z,100.00
2022-09-15T00:59:02.666Z,100.00
2022-09-15T01:02:04.872Z,100.00
2022-09-15T01:04:58.201Z,100.00
2022-09-15T01:08:11.586Z,100.00
2022-09-15T01:11:00.498Z,100.00
2022-09-15T01:13:48.289Z,100.00
2022-09-15T01:16:47.751Z,100.00
2022-09-15T01:20:23.481Z,100.00
2022-09-15T01:23:44.677Z,100.00
2022-09-15T01:27:30.643Z,100.00
2022-09-15T01:30:26.072Z,100.00
2022-09-15T01:33:31.804Z,100.00
2022-09-15T01:36:48.292Z,100.00
2022-09-15T01:39:41.785Z,100.00
2022-09-15T01:42:31.762Z,100.00
2022-09-15T01:45:33.226Z,100.00
2022-09-15T01:48:25.310Z,100.00
2022-09-15T01:51:14.070Z,100.00
2022-09-15T01:54:05.765Z,100.00
2022-09-15T01:56:53.520Z,100.00
2022-09-15T01:59:41.289Z,100.00
2022-09-15T02:02:59.181Z,100.00
2022-09-15T02:05:58.957Z,100.00
2022-09-15T02:09:13.419Z,100.00
2022-09-15T02:12:08.807Z,100.00
2022-09-15T02:15:08.658Z,100.00
2022-09-15T02:17:57.990Z,100.00
2022-09-15T02:20:53.541Z,100.00
2022-09-15T02:23:47.656Z,100.00
2022-09-15T02:26:38.405Z,100.00
2022-09-15T02:29:27.725Z,100.00
2022-09-15T02:32:19.521Z,100.00
2022-09-15T02:35:09.945Z,100.00
2022-09-15T02:37:59.783Z,100.00
2022-09-15T02:40:48.405Z,100.00
2022-09-15T02:43:46.350Z,100.00
2022-09-15T02:46:34.107Z,100.00
2022-09-15T02:49:21.851Z,100.00
2022-09-15T02:52:09.542Z,100.00
2022-09-15T02:54:57.266Z,100.00
2022-09-15T02:57:45.052Z,100.00
2022-09-15T03:00:32.843Z,100.00
2022-09-15T03:03:21.975Z,100.00
2022-09-15T03:06:20.971Z,100.00
2022-09-15T03:09:09.157Z,100.00
2022-09-15T03:11:56.871Z,100.00
2022-09-15T03:14:44.561Z,100.00
2022-09-15T03:17:37.008Z,100.00
2022-09-15T03:20:30.298Z,100.00
2022-09-15T03:23:18.121Z,100.00
2022-09-15T03:26:07.848Z,100.00
2022-09-15T03:28:56.143Z,100.00
2022-09-15T03:31:44.179Z,100.00
2022-09-15T03:34:32.020Z,100.00
2022-09-15T03:37:19.917Z,100.00
2022-09-15T03:40:10.741Z,100.00
2022-09-15T03:42:58.644Z,100.00
2022-09-15T03:45:46.400Z,100.00
2022-09-15T03:48:35.739Z,100.00
2022-09-15T03:51:24.083Z,100.00
2022-09-15T03:54:12.052Z,100.00
2022-09-15T03:56:59.795Z,100.00
2022-09-15T03:59:47.552Z,100.00
2022-09-15T04:02:35.311Z,100.00
2022-09-15T04:05:23.220Z,100.00
2022-09-15T04:08:13.029Z,100.00
2022-09-15T04:11:08.077Z,100.00
2022-09-15T04:13:56.169Z,100.00
2022-09-15T04:16:44.034Z,100.00
2022-09-15T04:19:31.833Z,100.00
2022-09-15T04:22:20.103Z,100.00
2022-09-15T04:25:09.251Z,100.00
2022-09-15T04:27:57.895Z,100.00
2022-09-15T04:30:45.612Z,100.00
2022-09-15T04:33:34.338Z,100.00
2022-09-15T04:36:25.453Z,100.00
2022-09-15T04:39:13.908Z,100.00
2022-09-15T04:42:05.075Z,100.00
2022-09-15T04:44:52.874Z,100.00
2022-09-15T04:47:40.610Z,100.00
2022-09-15T04:50:28.392Z,100.00
2022-09-15T04:53:16.999Z,100.00
2022-09-15T04:56:25.759Z,100.00
2022-09-15T04:59:18.999Z,100.00
2022-09-15T05:02:06.799Z,100.00
2022-09-15T05:04:54.570Z,100.00
2022-09-15T05:07:42.504Z,100.00
2022-09-15T05:10:30.372Z,100.00
2022-09-15T05:13:18.070Z,100.00
2022-09-15T05:16:27.224Z,100.00
2022-09-15T05:19:15.031Z,100.00
2022-09-15T05:22:02.775Z,100.00
2022-09-15T05:24:50.555Z,100.00
2022-09-15T05:27:39.323Z,100.00
2022-09-15T05:30:44.432Z,100.00
2022-09-15T05:33:32.783Z,100.00
2022-09-15T05:36:25.136Z,100.00
2022-09-15T05:39:13.262Z,100.00
2022-09-15T05:42:01.155Z,100.00
2022-09-15T05:44:48.978Z,100.00
2022-09-15T05:47:36.815Z,100.00
2022-09-15T05:50:24.573Z,100.00
2022-09-15T05:53:12.293Z,100.00
2022-09-15T05:56:03.299Z,100.00
2022-09-15T05:58:51.090Z,100.00
2022-09-15T06:01:38.925Z,100.00
2022-09-15T06:04:26.989Z,100.00
2022-09-15T06:07:14.725Z,100.00
2022-09-15T06:10:04.295Z,100.00
2022-09-15T06:12:55.499Z,100.00
2022-09-15T06:15:43.329Z,100.00
2022-09-15T06:18:32.687Z,100.00
2022-09-15T06:21:24.070Z,100.00
2022-09-15T06:24:12.706Z,100.00
2022-09-15T06:27:00.521Z,100.00
2022-09-15T06:29:48.804Z,100.00
2022-09-15T06:32:36.596Z,100.00
2022-09-15T06:35:24.402Z,100.00
2022-09-15T06:38:12.136Z,100.00
2022-09-15T06:41:00.261Z,100.00
2022-09-15T06:43:49.273Z,100.00
2022-09-15T06:46:37.134Z,100.00
2022-09-15T06:49:25.971Z,100.00
2022-09-15T06:52:13.660Z,100.00
2022-09-15T06:55:01.478Z,100.00
2022-09-15T06:57:50.661Z,100.00
2022-09-15T07:00:38.422Z,100.00
2022-09-15T07:03:26.367Z,100.00
2022-09-15T07:06:14.775Z,100.00
2022-09-15T07:09:03.690Z,100.00
2022-09-15T07:11:51.411Z,100.00
2022-09-15T07:14:39.156Z,100.00
2022-09-15T07:17:27.185Z,100.00
2022-09-15T07:20:14.987Z,100.00
2022-09-15T07:23:03.357Z,100.00
2022-09-15T07:25:51.123Z,100.00
2022-09-15T07:28:40.092Z,100.00
2022-09-15T07:31:32.627Z,100.00
2022-09-15T07:34:20.435Z,100.00
2022-09-15T07:37:08.574Z,100.00
2022-09-15T07:39:59.874Z,100.00
2022-09-15T07:42:47.699Z,100.00
2022-09-15T07:45:36.101Z,100.00
2022-09-15T07:48:26.493Z,100.00
2022-09-15T07:51:15.492Z,100.00
2022-09-15T07:54:03.276Z,100.00
2022-09-15T07:56:51.072Z,100.00
2022-09-15T07:59:41.223Z,100.00
2022-09-15T08:02:29.406Z,100.00
2022-09-15T08:05:17.209Z,96.99
2022-09-15T08:08:05.896Z,99.35
2022-09-15T08:10:53.682Z,96.86
2022-09-15T08:13:41.517Z,95.36
2022-09-15T08:16:29.545Z,94.45
2022-09-15T08:19:17.361Z,95.59
2022-09-15T08:22:05.611Z,95.54
2022-09-15T08:24:55.899Z,94.14
2022-09-15T08:27:43.879Z,94.01
2022-09-15T08:30:32.567Z,93.22
2022-09-15T08:33:20.558Z,90.84
2022-09-15T08:36:13.428Z,93.14
2022-09-15T08:39:01.548Z,91.18
2022-09-15T08:41:52.896Z,92.13
2022-09-15T08:45:09.952Z,93.67
2022-09-15T08:48:01.553Z,93.89
2022-09-15T08:50:52.358Z,92.46
2022-09-15T08:53:48.089Z,87.88
2022-09-15T08:56:37.144Z,87.55
2022-09-15T08:59:32.501Z,79.51
2022-09-15T09:02:55.377Z,80.94
2022-09-15T09:06:03.870Z,75.80
2022-09-15T09:09:34.092Z,75.50
2022-09-15T09:12:49.525Z,71.35
2022-09-15T09:15:55.752Z,74.76
2022-09-15T09:19:32.131Z,67.23
2022-09-15T09:22:29.611Z,67.54
2022-09-15T09:25:27.552Z,64.66
2022-09-15T09:29:00.076Z,66.06
2022-09-15T09:31:50.969Z,66.82
2022-09-15T09:34:47.594Z,63.40
2022-09-15T09:37:35.405Z,63.47
2022-09-15T09:40:23.290Z,61.24
2022-09-15T09:43:11.715Z,63.17
2022-09-15T09:45:59.768Z,62.79
2022-09-15T09:48:55.063Z,62.77
2022-09-15T09:51:55.133Z,64.40
2022-09-15T09:54:43.013Z,67.70
2022-09-15T09:57:32.510Z,70.26
2022-09-15T10:00:40.349Z,71.28
2022-09-15T10:03:32.683Z,71.05
2022-09-15T10:06:24.354Z,69.74
2022-09-15T10:09:19.415Z,68.42
2022-09-15T10:12:07.795Z,70.60
2022-09-15T10:15:00.637Z,65.20
2022-09-15T10:17:50.427Z,69.74
2022-09-15T10:20:51.294Z,69.29
2022-09-15T10:23:39.035Z,67.44
2022-09-15T10:26:34.215Z,66.63
2022-09-15T10:29:23.705Z,65.86
2022-09-15T10:32:25.287Z,66.89
2022-09-15T10:35:20.868Z,68.51
2022-09-15T10:38:26.340Z,67.60
2022-09-15T10:41:29.597Z,67.49
2022-09-15T10:44:47.893Z,67.10
2022-09-15T10:48:20.329Z,66.51
2022-09-15T10:51:38.366Z,67.24
2022-09-15T10:54:41.266Z,65.20
2022-09-15T10:58:04.498Z,67.04
2022-09-15T11:01:18.239Z,65.17
2022-09-15T11:04:49.767Z,66.35
2022-09-15T11:08:15.174Z,68.58
2022-09-15T11:11:20.946Z,71.37
2022-09-15T11:14:30.170Z,72.38
2022-09-15T11:17:48.867Z,75.32
2022-09-15T11:21:10.449Z,74.61
2022-09-15T11:24:43.430Z,75.69
2022-09-15T11:27:41.137Z,74.06
2022-09-15T11:30:45.639Z,72.28
2022-09-15T11:33:53.003Z,71.13
2022-09-15T11:37:11.026Z,61.59
2022-09-15T11:40:05.576Z,63.30
2022-09-15T11:43:45.979Z,64.86
2022-09-15T11:46:52.573Z,64.58
2022-09-15T11:49:56.918Z,60.83
2022-09-15T11:53:09.501Z,58.62
2022-09-15T11:56:32.556Z,56.60
2022-09-15T11:59:34.508Z,56.96
2022-09-15T12:02:51.322Z,60.38
2022-09-15T12:06:40.926Z,61.05
2022-09-15T12:09:31.475Z,60.59
2022-09-15T12:12:21.817Z,54.96
2022-09-15T12:15:17.438Z,57.14
2022-09-15T12:18:38.988Z,56.66
2022-09-15T12:22:01.269Z,52.25
2022-09-15T12:25:01.115Z,53.72
2022-09-15T12:28:24.284Z,54.92
2022-09-15T12:31:14.258Z,57.04
2022-09-15T12:34:27.133Z,57.35
2022-09-15T12:37:16.314Z,55.63
2022-09-15T12:40:07.698Z,58.78
2022-09-15T12:42:56.912Z,57.50
2022-09-15T12:46:01.764Z,57.70
2022-09-15T12:48:50.212Z,57.69
2022-09-15T12:51:37.975Z,56.00
2022-09-15T12:54:33.116Z,56.13
2022-09-15T12:57:32.676Z,56.81
2022-09-15T13:00:49.996Z,56.67
2022-09-15T13:03:50.859Z,56.64
2022-09-15T13:06:38.708Z,57.96
2022-09-15T13:09:28.582Z,58.02
2022-09-15T13:12:17.976Z,58.38
2022-09-15T13:15:13.523Z,56.00
2022-09-15T13:18:05.845Z,51.50
2022-09-15T13:21:07.165Z,49.73
2022-09-15T13:23:55.949Z,52.67
2022-09-15T13:26:49.232Z,54.02
2022-09-15T13:29:47.617Z,55.08
2022-09-15T13:33:22.100Z,54.01
2022-09-15T13:40:50.552Z,54.57
2022-09-15T13:43:56.258Z,56.59
2022-09-15T13:47:12.471Z,57.06
2022-09-15T13:50:21.850Z,55.27
2022-09-15T13:53:43.197Z,57.17
2022-09-15T13:56:39.560Z,57.43
2022-09-15T13:59:32.678Z,54.82
2022-09-15T14:02:21.231Z,54.77
2022-09-15T14:05:09.868Z,54.42
2022-09-15T14:08:07.996Z,55.28
2022-09-15T14:11:02.139Z,55.20
2022-09-15T14:13:50.803Z,56.06
2022-09-15T14:16:39.699Z,55.79
2022-09-15T14:19:37.131Z,55.60
2022-09-15T14:22:33.832Z,54.83
2022-09-15T14:25:22.304Z,54.99
2022-09-15T14:28:21.367Z,54.42
2022-09-15T14:31:09.435Z,53.26
2022-09-15T14:33:57.683Z,51.14
2022-09-15T14:36:46.970Z,51.26
2022-09-15T14:39:37.718Z,51.61
2022-09-15T14:42:30.650Z,51.89
2022-09-15T14:48:31.972Z,52.45
2022-09-15T14:51:28.584Z,52.65
2022-09-15T14:54:26.484Z,52.75
2022-09-15T14:57:26.548Z,51.49
2022-09-15T15:00:23.662Z,51.83
2022-09-15T15:03:40.898Z,52.88
2022-09-15T15:07:17.215Z,52.50
2022-09-15T15:10:19.788Z,53.53
2022-09-15T15:13:23.883Z,53.80
2022-09-15T15:16:28.729Z,56.27
2022-09-15T15:19:41.941Z,55.05
2022-09-15T15:22:29.712Z,55.70
2022-09-15T15:25:32.280Z,55.58
2022-09-15T15:28:36.215Z,56.06
2022-09-15T15:31:26.771Z,58.03
2022-09-15T15:34:24.253Z,55.64
2022-09-15T15:37:26.933Z,57.17
2022-09-15T15:40:21.008Z,57.58
2022-09-15T15:43:23.782Z,57.24
2022-09-15T15:46:11.574Z,57.00
2022-09-15T15:48:59.710Z,56.22
2022-09-15T15:51:48.176Z,56.23
2022-09-15T15:54:36.011Z,57.02
2022-09-15T15:57:27.535Z,58.28
2022-09-15T16:00:26.409Z,59.80
2022-09-15T16:03:16.014Z,60.61
2022-09-15T16:06:03.841Z,60.66
2022-09-15T16:08:52.660Z,61.38
2022-09-15T16:11:42.647Z,62.14
2022-09-15T16:14:30.457Z,61.55
2022-09-15T16:17:18.228Z,62.81
2022-09-15T16:20:07.149Z,63.09
2022-09-15T16:22:54.977Z,62.26
2022-09-15T16:26:05.173Z,62.75
2022-09-15T16:28:53.039Z,63.67
2022-09-15T16:31:42.942Z,64.18
2022-09-15T16:34:30.910Z,63.32
2022-09-15T16:37:18.694Z,62.75
2022-09-15T16:40:07.186Z,62.33
2022-09-15T16:42:55.019Z,63.70
2022-09-15T16:45:44.031Z,63.61
2022-09-15T16:48:31.749Z,64.20
2022-09-15T16:51:28.869Z,64.49
2022-09-15T16:54:22.872Z,64.56
2022-09-15T16:57:10.864Z,65.66
2022-09-15T16:59:58.647Z,64.75
2022-09-15T17:02:46.355Z,65.59
2022-09-15T17:05:45.148Z,65.65
2022-09-15T17:08:35.572Z,65.44
2022-09-15T17:11:25.378Z,67.03
2022-09-15T17:14:16.337Z,66.75
2022-09-15T17:17:04.563Z,66.45
2022-09-15T17:19:52.335Z,66.90
2022-09-15T17:22:40.081Z,66.79
2022-09-15T17:25:35.572Z,66.79
2022-09-15T17:28:27.412Z,69.43
2022-09-15T17:31:20.916Z,69.85
2022-09-15T17:34:14.295Z,70.41
2022-09-15T17:37:02.088Z,70.42
2022-09-15T17:39:50.642Z,69.06
2022-09-15T17:42:38.389Z,69.88
2022-09-15T17:45:30.263Z,69.75
2022-09-15T17:48:18.383Z,69.89
2022-09-15T17:51:09.497Z,69.59
2022-09-15T17:53:57.222Z,69.10
2022-09-15T17:56:44.957Z,69.12
2022-09-15T17:59:32.743Z,68.32
2022-09-15T18:02:21.259Z,68.64
2022-09-15T18:05:29.579Z,69.25
2022-09-15T18:08:17.564Z,69.79
2022-09-15T18:11:06.476Z,69.57
2022-09-15T18:13:54.485Z,70.55
2022-09-15T18:16:43.163Z,71.60
2022-09-15T18:19:30.920Z,74.45
2022-09-15T18:22:19.816Z,75.27
2022-09-15T18:25:14.389Z,76.65
2022-09-15T18:28:03.810Z,76.11
2022-09-15T18:30:52.256Z,78.53
2022-09-15T18:33:40.364Z,78.61
2022-09-15T18:36:28.721Z,78.07
2022-09-15T18:39:16.453Z,80.75
2022-09-15T18:42:04.376Z,82.79
2022-09-15T18:44:52.162Z,82.83
2022-09-15T18:47:43.741Z,84.20
2022-09-15T18:50:32.081Z,84.66
2022-09-15T18:53:19.921Z,85.22
2022-09-15T18:56:15.652Z,84.82
2022-09-15T18:59:03.473Z,85.89
2022-09-15T19:01:51.349Z,86.31
2022-09-15T19:04:40.765Z,87.58
2022-09-15T19:07:28.916Z,88.61
2022-09-15T19:10:17.354Z,90.72
2022-09-15T19:13:05.198Z,91.08
2022-09-15T19:15:53.686Z,91.00
2022-09-15T19:18:41.522Z,89.58
2022-09-15T19:21:29.231Z,88.94
2022-09-15T19:24:17.053Z,89.28
2022-09-15T19:27:07.213Z,88.78
2022-09-15T19:29:55.094Z,87.48
2022-09-15T19:32:43.354Z,86.37
2022-09-15T19:35:31.163Z,83.18
2022-09-15T19:38:19.477Z,78.14
2022-09-15T19:41:11.685Z,81.35
2022-09-15T19:44:01.981Z,77.28
2022-09-15T19:46:49.898Z,76.98
2022-09-15T19:49:37.674Z,72.73
2022-09-15T19:52:26.397Z,69.18
2022-09-15T19:55:14.203Z,74.31
2022-09-15T19:58:01.901Z,73.35
2022-09-15T20:00:56.700Z,70.27
2022-09-15T20:03:44.823Z,68.06
2022-09-15T20:06:33.064Z,68.05
2022-09-15T20:09:20.915Z,68.52
2022-09-15T20:12:08.714Z,68.35
2022-09-15T20:14:56.480Z,69.32
2022-09-15T20:17:44.306Z,69.20
2022-09-15T20:20:32.811Z,70.95
2022-09-15T20:23:21.353Z,73.54
2022-09-15T20:26:13.082Z,72.63
2022-09-15T20:29:02.203Z,75.17
2022-09-15T20:31:50.123Z,77.47
2022-09-15T20:34:37.866Z,75.55
2022-09-15T20:37:25.720Z,79.80
2022-09-15T20:40:13.501Z,78.53
2022-09-15T20:43:01.315Z,78.30
2022-09-15T20:46:04.978Z,77.95
2022-09-15T20:48:52.869Z,83.58
2022-09-15T20:51:40.679Z,80.61
2022-09-15T20:54:28.433Z,78.13
2022-09-15T20:57:16.209Z,80.24
2022-09-15T21:00:05.925Z,81.13
2022-09-15T21:02:53.750Z,79.25
2022-09-15T21:05:43.376Z,81.19
2022-09-15T21:08:31.548Z,82.59
2022-09-15T21:11:21.161Z,85.47
2022-09-15T21:14:13.615Z,94.72
2022-09-15T21:17:01.405Z,93.69
2022-09-15T21:19:49.107Z,98.68
2022-09-15T21:22:36.876Z,97.04
2022-09-15T21:25:24.840Z,92.99
2022-09-15T21:28:14.287Z,97.01
2022-09-15T21:31:14.939Z,93.28
2022-09-15T21:34:02.940Z,91.06
2022-09-15T21:36:51.739Z,92.30
2022-09-15T21:39:39.541Z,92.94
2022-09-15T21:42:27.554Z,87.35
2022-09-15T21:45:15.414Z,94.54
2022-09-15T21:48:03.538Z,92.57
2022-09-15T21:50:52.234Z,90.61
2022-09-15T21:53:41.014Z,91.90
2022-09-15T21:56:29.982Z,93.04
2022-09-15T21:59:18.402Z,91.10
2022-09-15T22:02:06.243Z,91.90
2022-09-15T22:04:54.468Z,89.65
2022-09-15T22:07:42.218Z,95.11
2022-09-15T22:10:31.422Z,97.75
2022-09-15T22:13:19.186Z,93.49
2022-09-15T22:16:20.042Z,93.79
2022-09-15T22:19:10.543Z,95.35
2022-09-15T22:21:58.300Z,90.83
2022-09-15T22:24:47.920Z,94.64
2022-09-15T22:27:35.862Z,91.06
2022-09-15T22:30:23.641Z,92.20
2022-09-15T22:33:11.394Z,92.95
2022-09-15T22:35:59.654Z,85.95
2022-09-15T22:38:47.700Z,90.51
2022-09-15T22:41:38.169Z,86.67
2022-09-15T22:44:25.910Z,86.89
2022-09-15T22:47:13.889Z,87.05
2022-09-15T22:50:02.709Z,85.74
2022-09-15T22:52:51.964Z,84.98
2022-09-15T22:55:40.094Z,81.61
2022-09-15T22:58:27.814Z,83.88
2022-09-15T23:01:21.557Z,83.26
2022-09-15T23:04:09.724Z,80.61
2022-09-15T23:06:57.463Z,79.69
2022-09-15T23:09:45.188Z,79.45
2022-09-15T23:12:33.294Z,80.38
2022-09-15T23:15:21.052Z,79.52
2022-09-15T23:18:08.772Z,78.53
2022-09-15T23:21:02.407Z,77.82
2022-09-15T23:23:53.338Z,77.75
2022-09-15T23:26:41.366Z,76.83
2022-09-15T23:29:29.119Z,76.67
2022-09-15T23:32:17.144Z,77.37
2022-09-15T23:35:05.601Z,77.08
2022-09-15T23:37:53.321Z,77.23
2022-09-15T23:40:42.959Z,76.45
2022-09-15T23:43:30.924Z,76.92
2022-09-15T23:46:18.752Z,76.85
2022-09-15T23:49:06.579Z,76.12
2022-09-15T23:51:54.377Z,74.74
2022-09-15T23:54:42.344Z,74.50
2022-09-15T23:57:30.130Z,74.66
